sensor_id;sensor_type;location;lat;lon;timestamp;P1;durP1;ratioP1;P2;durP2;ratioP2
70733;SDS011;58320;48.804;9.252;2023-05-10T00:00:07;7.10;;;2.40;;
70733;SDS011;58320;48.804;9.252;2023-05-10T00:02:34;5.95;;;2.83;;
70733;SDS011;58320;48.804;9.252;2023-05-10T00:05:01;4.50;;;2.50;;
70733;SDS011;58320;48.804;9.252;2023-05-10T00:07:27;4.15;;;1.70;;
70733;SDS011;58320;48.804;9.252;2023-05-10T00:09:52;3.20;;;1.43;;
70733;SDS011;58320;48.804;9.252;2023-05-10T00:12:18;2.83;;;1.17;;
70733;SDS011;58320;48.804;9.252;2023-05-10T00:14:44;3.00;;;1.30;;
70733;SDS011;58320;48.804;9.252;2023-05-10T00:17:10;2.67;;;1.15;;
70733;SDS011;58320;48.804;9.252;2023-05-10T00:19:35;3.00;;;0.98;;
70733;SDS011;58320;48.804;9.252;2023-05-10T00:22:01;3.07;;;1.20;;
70733;SDS011;58320;48.804;9.252;2023-05-10T00:24:28;4.85;;;1.10;;
70733;SDS011;58320;48.804;9.252;2023-05-10T00:26:53;2.50;;;1.00;;
70733;SDS011;58320;48.804;9.252;2023-05-10T00:29:19;2.87;;;0.70;;
70733;SDS011;58320;48.804;9.252;2023-05-10T00:31:45;3.42;;;0.85;;
70733;SDS011;58320;48.804;9.252;2023-05-10T00:34:10;2.20;;;1.00;;
70733;SDS011;58320;48.804;9.252;2023-05-10T00:36:36;1.50;;;0.55;;
70733;SDS011;58320;48.804;9.252;2023-05-10T00:39:02;2.50;;;0.83;;
70733;SDS011;58320;48.804;9.252;2023-05-10T00:41:28;1.57;;;0.53;;
70733;SDS011;58320;48.804;9.252;2023-05-10T00:43:57;1.58;;;0.43;;
70733;SDS011;58320;48.804;9.252;2023-05-10T00:46:23;2.53;;;0.50;;
70733;SDS011;58320;48.804;9.252;2023-05-10T00:48:51;1.35;;;0.50;;
70733;SDS011;58320;48.804;9.252;2023-05-10T00:51:17;2.13;;;0.80;;
70733;SDS011;58320;48.804;9.252;2023-05-10T00:53:46;1.52;;;0.60;;
70733;SDS011;58320;48.804;9.252;2023-05-10T00:56:13;1.40;;;0.60;;
70733;SDS011;58320;48.804;9.252;2023-05-10T00:58:40;1.40;;;0.60;;
70733;SDS011;58320;48.804;9.252;2023-05-10T01:01:06;2.30;;;0.60;;
70733;SDS011;58320;48.804;9.252;2023-05-10T01:03:32;1.80;;;0.70;;
70733;SDS011;58320;48.804;9.252;2023-05-10T01:05:58;1.70;;;0.70;;
70733;SDS011;58320;48.804;9.252;2023-05-10T01:08:24;1.97;;;0.77;;
70733;SDS011;58320;48.804;9.252;2023-05-10T01:10:51;1.90;;;0.60;;
70733;SDS011;58320;48.804;9.252;2023-05-10T01:13:18;1.88;;;0.75;;
70733;SDS011;58320;48.804;9.252;2023-05-10T01:15:57;1.95;;;0.70;;
70733;SDS011;58320;48.804;9.252;2023-05-10T01:18:23;2.45;;;0.60;;
70733;SDS011;58320;48.804;9.252;2023-05-10T01:20:55;1.80;;;0.70;;
70733;SDS011;58320;48.804;9.252;2023-05-10T01:34:59;2.43;;;0.80;;
70733;SDS011;58320;48.804;9.252;2023-05-10T01:37:44;1.90;;;0.80;;
70733;SDS011;58320;48.804;9.252;2023-05-10T01:40:17;2.63;;;1.05;;
70733;SDS011;58320;48.804;9.252;2023-05-10T01:42:53;2.00;;;0.70;;
70733;SDS011;58320;48.804;9.252;2023-05-10T01:45:27;2.80;;;0.80;;
70733;SDS011;58320;48.804;9.252;2023-05-10T01:48:05;1.90;;;0.80;;
70733;SDS011;58320;48.804;9.252;2023-05-10T01:50:35;2.17;;;0.85;;
70733;SDS011;58320;48.804;9.252;2023-05-10T01:53:05;2.53;;;1.08;;
70733;SDS011;58320;48.804;9.252;2023-05-10T01:55:35;2.10;;;1.00;;
70733;SDS011;58320;48.804;9.252;2023-05-10T01:58:07;2.33;;;0.90;;
70733;SDS011;58320;48.804;9.252;2023-05-10T02:00:39;3.20;;;0.80;;
70733;SDS011;58320;48.804;9.252;2023-05-10T02:03:08;3.80;;;0.98;;
70733;SDS011;58320;48.804;9.252;2023-05-10T02:05:36;2.22;;;0.82;;
70733;SDS011;58320;48.804;9.252;2023-05-10T02:08:05;2.17;;;1.00;;
70733;SDS011;58320;48.804;9.252;2023-05-10T02:10:32;2.78;;;1.00;;
70733;SDS011;58320;48.804;9.252;2023-05-10T02:13:00;2.10;;;0.80;;
70733;SDS011;58320;48.804;9.252;2023-05-10T02:15:27;2.47;;;0.98;;
70733;SDS011;58320;48.804;9.252;2023-05-10T02:17:55;2.20;;;1.10;;
70733;SDS011;58320;48.804;9.252;2023-05-10T02:20:23;2.40;;;1.10;;
70733;SDS011;58320;48.804;9.252;2023-05-10T02:22:50;2.63;;;1.40;;
70733;SDS011;58320;48.804;9.252;2023-05-10T02:25:20;1.97;;;0.87;;
70733;SDS011;58320;48.804;9.252;2023-05-10T02:27:48;2.20;;;0.90;;
70733;SDS011;58320;48.804;9.252;2023-05-10T02:30:14;2.05;;;0.90;;
70733;SDS011;58320;48.804;9.252;2023-05-10T02:32:41;2.42;;;1.00;;
70733;SDS011;58320;48.804;9.252;2023-05-10T02:35:08;2.30;;;1.05;;
70733;SDS011;58320;48.804;9.252;2023-05-10T02:37:35;2.20;;;0.90;;
70733;SDS011;58320;48.804;9.252;2023-05-10T02:40:02;2.42;;;0.88;;
70733;SDS011;58320;48.804;9.252;2023-05-10T02:42:31;2.00;;;1.00;;
70733;SDS011;58320;48.804;9.252;2023-05-10T02:45:01;2.45;;;0.95;;
70733;SDS011;58320;48.804;9.252;2023-05-10T02:47:30;3.47;;;0.90;;
70733;SDS011;58320;48.804;9.252;2023-05-10T02:49:56;1.97;;;0.80;;
70733;SDS011;58320;48.804;9.252;2023-05-10T02:52:26;2.83;;;0.90;;
70733;SDS011;58320;48.804;9.252;2023-05-10T02:54:58;1.95;;;0.95;;
70733;SDS011;58320;48.804;9.252;2023-05-10T02:57:27;2.58;;;0.90;;
70733;SDS011;58320;48.804;9.252;2023-05-10T02:59:56;1.70;;;0.60;;
70733;SDS011;58320;48.804;9.252;2023-05-10T03:02:23;4.20;;;0.80;;
70733;SDS011;58320;48.804;9.252;2023-05-10T03:04:49;2.30;;;0.88;;
70733;SDS011;58320;48.804;9.252;2023-05-10T03:07:15;3.17;;;0.90;;
70733;SDS011;58320;48.804;9.252;2023-05-10T03:09:41;1.70;;;0.70;;
70733;SDS011;58320;48.804;9.252;2023-05-10T03:12:10;2.40;;;0.80;;
70733;SDS011;58320;48.804;9.252;2023-05-10T03:17:47;1.65;;;0.68;;
70733;SDS011;58320;48.804;9.252;2023-05-10T03:20:43;2.80;;;0.73;;
70733;SDS011;58320;48.804;9.252;2023-05-10T03:25:54;1.85;;;0.82;;
70733;SDS011;58320;48.804;9.252;2023-05-10T03:28:20;2.45;;;0.70;;
70733;SDS011;58320;48.804;9.252;2023-05-10T03:30:47;1.95;;;0.73;;
70733;SDS011;58320;48.804;9.252;2023-05-10T03:33:12;3.50;;;0.90;;
70733;SDS011;58320;48.804;9.252;2023-05-10T03:35:39;3.28;;;0.90;;
70733;SDS011;58320;48.804;9.252;2023-05-10T03:38:04;2.35;;;0.77;;
70733;SDS011;58320;48.804;9.252;2023-05-10T03:40:30;2.00;;;0.90;;
70733;SDS011;58320;48.804;9.252;2023-05-10T03:42:59;1.75;;;0.80;;
70733;SDS011;58320;48.804;9.252;2023-05-10T03:45:25;2.50;;;1.10;;
70733;SDS011;58320;48.804;9.252;2023-05-10T03:47:51;3.97;;;1.30;;
70733;SDS011;58320;48.804;9.252;2023-05-10T03:50:17;2.70;;;1.20;;
70733;SDS011;58320;48.804;9.252;2023-05-10T03:52:43;2.67;;;1.20;;
70733;SDS011;58320;48.804;9.252;2023-05-10T03:55:09;2.58;;;1.08;;
70733;SDS011;58320;48.804;9.252;2023-05-10T03:57:35;2.63;;;1.00;;
70733;SDS011;58320;48.804;9.252;2023-05-10T04:00:01;3.15;;;1.30;;
70733;SDS011;58320;48.804;9.252;2023-05-10T04:02:28;2.70;;;1.35;;
70733;SDS011;58320;48.804;9.252;2023-05-10T04:04:55;2.40;;;1.05;;
70733;SDS011;58320;48.804;9.252;2023-05-10T04:07:21;4.57;;;1.40;;
70733;SDS011;58320;48.804;9.252;2023-05-10T04:09:47;2.53;;;1.00;;
70733;SDS011;58320;48.804;9.252;2023-05-10T04:12:13;4.15;;;1.10;;
70733;SDS011;58320;48.804;9.252;2023-05-10T04:14:38;2.97;;;1.27;;
70733;SDS011;58320;48.804;9.252;2023-05-10T04:17:04;2.43;;;1.20;;
70733;SDS011;58320;48.804;9.252;2023-05-10T04:19:30;2.33;;;1.05;;
70733;SDS011;58320;48.804;9.252;2023-05-10T04:21:57;2.90;;;1.25;;
70733;SDS011;58320;48.804;9.252;2023-05-10T04:24:24;3.08;;;1.38;;
70733;SDS011;58320;48.804;9.252;2023-05-10T04:26:50;4.70;;;1.30;;
70733;SDS011;58320;48.804;9.252;2023-05-10T04:29:16;2.70;;;1.20;;
70733;SDS011;58320;48.804;9.252;2023-05-10T04:31:42;2.80;;;1.20;;
70733;SDS011;58320;48.804;9.252;2023-05-10T04:34:07;3.33;;;1.10;;
70733;SDS011;58320;48.804;9.252;2023-05-10T04:36:33;4.28;;;1.10;;
70733;SDS011;58320;48.804;9.252;2023-05-10T04:39:01;2.85;;;1.15;;
70733;SDS011;58320;48.804;9.252;2023-05-10T04:41:28;2.40;;;1.38;;
70733;SDS011;58320;48.804;9.252;2023-05-10T04:43:55;2.70;;;1.30;;
70733;SDS011;58320;48.804;9.252;2023-05-10T04:46:21;3.45;;;1.20;;
70733;SDS011;58320;48.804;9.252;2023-05-10T04:48:46;2.50;;;1.20;;
70733;SDS011;58320;48.804;9.252;2023-05-10T04:51:12;3.00;;;1.40;;
70733;SDS011;58320;48.804;9.252;2023-05-10T04:53:38;2.53;;;1.00;;
70733;SDS011;58320;48.804;9.252;2023-05-10T04:56:04;3.17;;;1.33;;
70733;SDS011;58320;48.804;9.252;2023-05-10T04:58:30;2.83;;;1.50;;
70733;SDS011;58320;48.804;9.252;2023-05-10T05:00:56;2.57;;;1.30;;
70733;SDS011;58320;48.804;9.252;2023-05-10T05:03:22;3.63;;;1.73;;
70733;SDS011;58320;48.804;9.252;2023-05-10T05:05:48;3.03;;;1.50;;
70733;SDS011;58320;48.804;9.252;2023-05-10T05:08:13;3.22;;;1.35;;
70733;SDS011;58320;48.804;9.252;2023-05-10T05:10:39;2.40;;;1.20;;
70733;SDS011;58320;48.804;9.252;2023-05-10T05:13:05;2.83;;;1.27;;
70733;SDS011;58320;48.804;9.252;2023-05-10T05:15:31;2.80;;;1.23;;
70733;SDS011;58320;48.804;9.252;2023-05-10T05:17:57;2.80;;;1.10;;
70733;SDS011;58320;48.804;9.252;2023-05-10T05:20:22;2.65;;;1.30;;
70733;SDS011;58320;48.804;9.252;2023-05-10T05:22:48;3.47;;;1.50;;
70733;SDS011;58320;48.804;9.252;2023-05-10T05:25:14;2.93;;;1.33;;
70733;SDS011;58320;48.804;9.252;2023-05-10T05:27:40;3.13;;;1.42;;
70733;SDS011;58320;48.804;9.252;2023-05-10T05:30:06;3.70;;;1.38;;
70733;SDS011;58320;48.804;9.252;2023-05-10T05:32:33;2.42;;;1.20;;
70733;SDS011;58320;48.804;9.252;2023-05-10T05:34:59;2.60;;;1.10;;
70733;SDS011;58320;48.804;9.252;2023-05-10T05:37:25;3.30;;;1.20;;
70733;SDS011;58320;48.804;9.252;2023-05-10T05:39:51;3.00;;;1.33;;
70733;SDS011;58320;48.804;9.252;2023-05-10T05:42:17;2.70;;;1.10;;
70733;SDS011;58320;48.804;9.252;2023-05-10T05:44:43;2.90;;;1.30;;
70733;SDS011;58320;48.804;9.252;2023-05-10T05:47:09;3.42;;;1.20;;
70733;SDS011;58320;48.804;9.252;2023-05-10T05:49:36;7.28;;;1.40;;
70733;SDS011;58320;48.804;9.252;2023-05-10T05:52:02;3.58;;;1.42;;
70733;SDS011;58320;48.804;9.252;2023-05-10T05:54:29;2.92;;;1.23;;
70733;SDS011;58320;48.804;9.252;2023-05-10T05:56:59;3.60;;;1.30;;
70733;SDS011;58320;48.804;9.252;2023-05-10T05:59:25;3.70;;;1.33;;
70733;SDS011;58320;48.804;9.252;2023-05-10T06:01:51;3.13;;;1.27;;
70733;SDS011;58320;48.804;9.252;2023-05-10T06:04:17;4.63;;;1.48;;
70733;SDS011;58320;48.804;9.252;2023-05-10T06:06:43;4.30;;;1.20;;
70733;SDS011;58320;48.804;9.252;2023-05-10T06:09:09;3.47;;;1.40;;
70733;SDS011;58320;48.804;9.252;2023-05-10T06:11:37;3.45;;;1.40;;
70733;SDS011;58320;48.804;9.252;2023-05-10T06:14:03;2.83;;;1.27;;
70733;SDS011;58320;48.804;9.252;2023-05-10T06:16:32;2.58;;;1.20;;
70733;SDS011;58320;48.804;9.252;2023-05-10T06:19:00;3.75;;;1.20;;
70733;SDS011;58320;48.804;9.252;2023-05-10T06:21:27;2.43;;;1.43;;
70733;SDS011;58320;48.804;9.252;2023-05-10T06:23:52;3.72;;;1.45;;
70733;SDS011;58320;48.804;9.252;2023-05-10T06:26:18;3.43;;;1.47;;
70733;SDS011;58320;48.804;9.252;2023-05-10T06:28:45;2.60;;;1.27;;
70733;SDS011;58320;48.804;9.252;2023-05-10T06:31:11;2.80;;;1.25;;
70733;SDS011;58320;48.804;9.252;2023-05-10T06:33:37;3.77;;;1.20;;
70733;SDS011;58320;48.804;9.252;2023-05-10T06:36:03;2.78;;;1.00;;
70733;SDS011;58320;48.804;9.252;2023-05-10T06:38:29;3.65;;;1.30;;
70733;SDS011;58320;48.804;9.252;2023-05-10T06:40:55;2.65;;;1.20;;
70733;SDS011;58320;48.804;9.252;2023-05-10T06:43:20;3.00;;;1.23;;
70733;SDS011;58320;48.804;9.252;2023-05-10T06:45:47;3.05;;;1.45;;
70733;SDS011;58320;48.804;9.252;2023-05-10T06:48:13;3.92;;;1.30;;
70733;SDS011;58320;48.804;9.252;2023-05-10T06:50:39;2.60;;;1.30;;
70733;SDS011;58320;48.804;9.252;2023-05-10T06:53:05;2.70;;;1.30;;
70733;SDS011;58320;48.804;9.252;2023-05-10T06:55:30;2.50;;;1.23;;
70733;SDS011;58320;48.804;9.252;2023-05-10T06:57:56;6.90;;;1.53;;
70733;SDS011;58320;48.804;9.252;2023-05-10T07:00:22;5.13;;;1.30;;
70733;SDS011;58320;48.804;9.252;2023-05-10T07:02:48;2.20;;;1.00;;
70733;SDS011;58320;48.804;9.252;2023-05-10T07:05:13;3.75;;;1.70;;
70733;SDS011;58320;48.804;9.252;2023-05-10T07:07:40;3.63;;;1.60;;
70733;SDS011;58320;48.804;9.252;2023-05-10T07:10:06;3.47;;;1.40;;
70733;SDS011;58320;48.804;9.252;2023-05-10T07:12:32;4.83;;;1.33;;
70733;SDS011;58320;48.804;9.252;2023-05-10T07:14:58;3.35;;;1.20;;
70733;SDS011;58320;48.804;9.252;2023-05-10T07:17:24;2.70;;;1.40;;
70733;SDS011;58320;48.804;9.252;2023-05-10T07:19:50;4.00;;;1.20;;
70733;SDS011;58320;48.804;9.252;2023-05-10T07:22:16;2.67;;;0.98;;
70733;SDS011;58320;48.804;9.252;2023-05-10T07:24:42;2.90;;;1.35;;
70733;SDS011;58320;48.804;9.252;2023-05-10T07:27:07;2.70;;;1.10;;
70733;SDS011;58320;48.804;9.252;2023-05-10T07:29:34;4.38;;;1.17;;
70733;SDS011;58320;48.804;9.252;2023-05-10T07:32:00;2.80;;;1.10;;
70733;SDS011;58320;48.804;9.252;2023-05-10T07:34:26;2.63;;;1.23;;
70733;SDS011;58320;48.804;9.252;2023-05-10T07:36:53;3.03;;;1.27;;
70733;SDS011;58320;48.804;9.252;2023-05-10T07:39:18;4.75;;;1.40;;
70733;SDS011;58320;48.804;9.252;2023-05-10T07:41:45;3.13;;;1.00;;
70733;SDS011;58320;48.804;9.252;2023-05-10T07:44:11;2.83;;;1.00;;
70733;SDS011;58320;48.804;9.252;2023-05-10T07:46:37;2.72;;;1.20;;
70733;SDS011;58320;48.804;9.252;2023-05-10T07:49:03;2.78;;;1.50;;
70733;SDS011;58320;48.804;9.252;2023-05-10T07:51:29;2.65;;;1.20;;
70733;SDS011;58320;48.804;9.252;2023-05-10T07:53:55;2.20;;;1.00;;
70733;SDS011;58320;48.804;9.252;2023-05-10T07:56:23;3.00;;;1.25;;
70733;SDS011;58320;48.804;9.252;2023-05-10T07:58:58;3.55;;;1.40;;
70733;SDS011;58320;48.804;9.252;2023-05-10T08:01:25;2.20;;;0.90;;
70733;SDS011;58320;48.804;9.252;2023-05-10T08:03:52;2.10;;;0.90;;
70733;SDS011;58320;48.804;9.252;2023-05-10T08:06:18;2.55;;;1.10;;
70733;SDS011;58320;48.804;9.252;2023-05-10T08:08:45;2.28;;;0.90;;
70733;SDS011;58320;48.804;9.252;2023-05-10T08:11:15;3.20;;;0.90;;
70733;SDS011;58320;48.804;9.252;2023-05-10T08:13:42;2.00;;;0.90;;
70733;SDS011;58320;48.804;9.252;2023-05-10T08:16:09;2.23;;;0.80;;
70733;SDS011;58320;48.804;9.252;2023-05-10T08:18:36;1.95;;;0.85;;
70733;SDS011;58320;48.804;9.252;2023-05-10T08:21:02;3.17;;;1.00;;
70733;SDS011;58320;48.804;9.252;2023-05-10T08:23:28;2.38;;;0.90;;
70733;SDS011;58320;48.804;9.252;2023-05-10T08:25:54;2.20;;;1.10;;
70733;SDS011;58320;48.804;9.252;2023-05-10T08:28:20;2.85;;;1.00;;
70733;SDS011;58320;48.804;9.252;2023-05-10T08:30:46;2.00;;;0.93;;
70733;SDS011;58320;48.804;9.252;2023-05-10T08:33:11;2.78;;;1.02;;
70733;SDS011;58320;48.804;9.252;2023-05-10T08:35:37;1.80;;;0.63;;
70733;SDS011;58320;48.804;9.252;2023-05-10T08:38:03;1.60;;;0.70;;
70733;SDS011;58320;48.804;9.252;2023-05-10T08:40:29;1.90;;;0.88;;
70733;SDS011;58320;48.804;9.252;2023-05-10T08:42:59;2.40;;;0.80;;
70733;SDS011;58320;48.804;9.252;2023-05-10T08:45:36;1.93;;;0.80;;
70733;SDS011;58320;48.804;9.252;2023-05-10T08:48:05;1.95;;;0.82;;
70733;SDS011;58320;48.804;9.252;2023-05-10T08:50:36;3.55;;;0.98;;
70733;SDS011;58320;48.804;9.252;2023-05-10T08:53:05;2.33;;;1.00;;
70733;SDS011;58320;48.804;9.252;2023-05-10T08:55:36;3.05;;;0.80;;
70733;SDS011;58320;48.804;9.252;2023-05-10T08:58:06;2.37;;;0.80;;
70733;SDS011;58320;48.804;9.252;2023-05-10T09:00:32;4.43;;;0.93;;
70733;SDS011;58320;48.804;9.252;2023-05-10T09:02:59;2.53;;;0.80;;
70733;SDS011;58320;48.804;9.252;2023-05-10T09:05:26;1.60;;;0.68;;
70733;SDS011;58320;48.804;9.252;2023-05-10T09:07:52;1.90;;;0.70;;
70733;SDS011;58320;48.804;9.252;2023-05-10T09:10:18;1.47;;;0.50;;
70733;SDS011;58320;48.804;9.252;2023-05-10T09:12:44;2.50;;;0.80;;
70733;SDS011;58320;48.804;9.252;2023-05-10T09:15:11;2.10;;;0.73;;
70733;SDS011;58320;48.804;9.252;2023-05-10T09:17:40;2.05;;;0.70;;
70733;SDS011;58320;48.804;9.252;2023-05-10T09:20:07;2.10;;;0.63;;
70733;SDS011;58320;48.804;9.252;2023-05-10T09:22:33;3.20;;;0.90;;
70733;SDS011;58320;48.804;9.252;2023-05-10T09:25:03;2.25;;;0.68;;
70733;SDS011;58320;48.804;9.252;2023-05-10T09:27:35;2.28;;;0.90;;
70733;SDS011;58320;48.804;9.252;2023-05-10T09:30:01;2.95;;;0.70;;
70733;SDS011;58320;48.804;9.252;2023-05-10T09:32:38;2.25;;;0.80;;
70733;SDS011;58320;48.804;9.252;2023-05-10T09:35:15;1.70;;;0.80;;
70733;SDS011;58320;48.804;9.252;2023-05-10T09:37:44;2.55;;;0.93;;
70733;SDS011;58320;48.804;9.252;2023-05-10T09:40:16;2.40;;;0.80;;
70733;SDS011;58320;48.804;9.252;2023-05-10T09:45:31;8.07;;;0.70;;
70733;SDS011;58320;48.804;9.252;2023-05-10T09:47:59;1.50;;;0.60;;
70733;SDS011;58320;48.804;9.252;2023-05-10T09:50:27;1.35;;;0.60;;
70733;SDS011;58320;48.804;9.252;2023-05-10T09:52:55;1.70;;;0.90;;
70733;SDS011;58320;48.804;9.252;2023-05-10T09:58:12;2.10;;;0.70;;
70733;SDS011;58320;48.804;9.252;2023-05-10T10:00:42;1.60;;;0.70;;
70733;SDS011;58320;48.804;9.252;2023-05-10T10:03:16;3.35;;;0.80;;
70733;SDS011;58320;48.804;9.252;2023-05-10T10:05:45;3.22;;;0.70;;
70733;SDS011;58320;48.804;9.252;2023-05-10T10:08:13;2.65;;;0.80;;
70733;SDS011;58320;48.804;9.252;2023-05-10T10:10:40;2.20;;;0.82;;
70733;SDS011;58320;48.804;9.252;2023-05-10T10:13:06;2.53;;;0.90;;
70733;SDS011;58320;48.804;9.252;2023-05-10T10:15:36;2.83;;;0.90;;
70733;SDS011;58320;48.804;9.252;2023-05-10T10:18:02;1.83;;;0.80;;
70733;SDS011;58320;48.804;9.252;2023-05-10T10:20:29;6.10;;;1.17;;
70733;SDS011;58320;48.804;9.252;2023-05-10T10:22:55;3.40;;;1.60;;
70733;SDS011;58320;48.804;9.252;2023-05-10T10:25:21;3.10;;;1.37;;
70733;SDS011;58320;48.804;9.252;2023-05-10T10:35:13;2.43;;;0.80;;
70733;SDS011;58320;48.804;9.252;2023-05-10T10:37:43;3.92;;;0.90;;
70733;SDS011;58320;48.804;9.252;2023-05-10T10:40:26;1.85;;;0.85;;
70733;SDS011;58320;48.804;9.252;2023-05-10T10:42:54;6.57;;;0.90;;
70733;SDS011;58320;48.804;9.252;2023-05-10T10:45:21;2.03;;;0.73;;
70733;SDS011;58320;48.804;9.252;2023-05-10T10:47:48;2.08;;;0.90;;
70733;SDS011;58320;48.804;9.252;2023-05-10T10:50:14;1.52;;;0.60;;
70733;SDS011;58320;48.804;9.252;2023-05-10T10:52:44;2.92;;;0.85;;
70733;SDS011;58320;48.804;9.252;2023-05-10T10:55:14;1.70;;;0.70;;
70733;SDS011;58320;48.804;9.252;2023-05-10T11:00:30;4.50;;;0.90;;
70733;SDS011;58320;48.804;9.252;2023-05-10T11:05:39;1.83;;;0.80;;
70733;SDS011;58320;48.804;9.252;2023-05-10T11:08:10;3.03;;;0.93;;
70733;SDS011;58320;48.804;9.252;2023-05-10T11:13:42;2.17;;;0.80;;
70733;SDS011;58320;48.804;9.252;2023-05-10T11:16:15;1.92;;;0.70;;
70733;SDS011;58320;48.804;9.252;2023-05-10T11:19:24;4.60;;;0.80;;
70733;SDS011;58320;48.804;9.252;2023-05-10T11:21:51;1.43;;;0.50;;
70733;SDS011;58320;48.804;9.252;2023-05-10T11:24:38;1.30;;;0.57;;
70733;SDS011;58320;48.804;9.252;2023-05-10T11:27:05;1.83;;;0.70;;
70733;SDS011;58320;48.804;9.252;2023-05-10T11:29:31;2.22;;;0.70;;
70733;SDS011;58320;48.804;9.252;2023-05-10T11:31:57;2.53;;;0.90;;
70733;SDS011;58320;48.804;9.252;2023-05-10T11:34:25;1.55;;;0.65;;
70733;SDS011;58320;48.804;9.252;2023-05-10T11:36:55;3.25;;;0.80;;
70733;SDS011;58320;48.804;9.252;2023-05-10T11:39:25;1.52;;;0.70;;
70733;SDS011;58320;48.804;9.252;2023-05-10T11:41:52;2.30;;;0.80;;
70733;SDS011;58320;48.804;9.252;2023-05-10T11:44:18;2.27;;;0.63;;
70733;SDS011;58320;48.804;9.252;2023-05-10T11:46:44;2.25;;;0.85;;
70733;SDS011;58320;48.804;9.252;2023-05-10T11:49:10;1.60;;;0.60;;
70733;SDS011;58320;48.804;9.252;2023-05-10T11:51:36;2.30;;;0.97;;
70733;SDS011;58320;48.804;9.252;2023-05-10T11:54:06;2.85;;;0.90;;
70733;SDS011;58320;48.804;9.252;2023-05-10T11:56:34;2.97;;;0.98;;
70733;SDS011;58320;48.804;9.252;2023-05-10T11:59:00;1.80;;;0.68;;
70733;SDS011;58320;48.804;9.252;2023-05-10T12:01:27;2.20;;;1.00;;
70733;SDS011;58320;48.804;9.252;2023-05-10T12:03:54;3.13;;;0.93;;
70733;SDS011;58320;48.804;9.252;2023-05-10T12:06:25;2.50;;;0.90;;
70733;SDS011;58320;48.804;9.252;2023-05-10T12:08:54;3.15;;;0.82;;
70733;SDS011;58320;48.804;9.252;2023-05-10T12:11:20;3.55;;;1.00;;
70733;SDS011;58320;48.804;9.252;2023-05-10T12:13:52;2.10;;;0.90;;
70733;SDS011;58320;48.804;9.252;2023-05-10T12:16:28;2.83;;;1.00;;
70733;SDS011;58320;48.804;9.252;2023-05-10T12:18:58;3.00;;;1.00;;
70733;SDS011;58320;48.804;9.252;2023-05-10T12:21:25;3.75;;;1.00;;
70733;SDS011;58320;48.804;9.252;2023-05-10T12:23:58;3.72;;;1.10;;
70733;SDS011;58320;48.804;9.252;2023-05-10T12:26:27;3.70;;;1.00;;
70733;SDS011;58320;48.804;9.252;2023-05-10T12:28:54;2.53;;;0.95;;
70733;SDS011;58320;48.804;9.252;2023-05-10T12:31:53;5.55;;;1.13;;
70733;SDS011;58320;48.804;9.252;2023-05-10T12:36:55;4.35;;;1.20;;
70733;SDS011;58320;48.804;9.252;2023-05-10T12:39:21;3.63;;;0.90;;
70733;SDS011;58320;48.804;9.252;2023-05-10T12:41:47;3.22;;;1.10;;
70733;SDS011;58320;48.804;9.252;2023-05-10T12:44:13;2.92;;;1.00;;
70733;SDS011;58320;48.804;9.252;2023-05-10T12:46:39;3.80;;;1.10;;
70733;SDS011;58320;48.804;9.252;2023-05-10T12:49:05;2.30;;;0.90;;
70733;SDS011;58320;48.804;9.252;2023-05-10T12:51:31;5.32;;;1.20;;
70733;SDS011;58320;48.804;9.252;2023-05-10T12:53:56;2.40;;;0.90;;
70733;SDS011;58320;48.804;9.252;2023-05-10T12:56:22;5.90;;;1.10;;
70733;SDS011;58320;48.804;9.252;2023-05-10T12:58:48;2.40;;;0.80;;
70733;SDS011;58320;48.804;9.252;2023-05-10T13:01:14;2.10;;;0.90;;
70733;SDS011;58320;48.804;9.252;2023-05-10T13:03:40;4.70;;;1.20;;
70733;SDS011;58320;48.804;9.252;2023-05-10T13:06:06;3.17;;;0.90;;
70733;SDS011;58320;48.804;9.252;2023-05-10T13:08:32;5.50;;;1.25;;
70733;SDS011;58320;48.804;9.252;2023-05-10T13:11:02;3.10;;;1.30;;
70733;SDS011;58320;48.804;9.252;2023-05-10T13:13:28;3.08;;;0.98;;
70733;SDS011;58320;48.804;9.252;2023-05-10T13:15:54;2.65;;;1.13;;
70733;SDS011;58320;48.804;9.252;2023-05-10T13:18:19;2.50;;;0.90;;
70733;SDS011;58320;48.804;9.252;2023-05-10T13:20:45;6.68;;;1.10;;
70733;SDS011;58320;48.804;9.252;2023-05-10T13:23:11;2.40;;;0.90;;
70733;SDS011;58320;48.804;9.252;2023-05-10T13:25:37;3.00;;;1.10;;
70733;SDS011;58320;48.804;9.252;2023-05-10T13:28:03;3.83;;;1.00;;
70733;SDS011;58320;48.804;9.252;2023-05-10T13:30:29;2.10;;;0.90;;
70733;SDS011;58320;48.804;9.252;2023-05-10T13:32:55;4.10;;;1.10;;
70733;SDS011;58320;48.804;9.252;2023-05-10T13:35:21;2.93;;;1.13;;
70733;SDS011;58320;48.804;9.252;2023-05-10T13:37:46;3.63;;;1.00;;
70733;SDS011;58320;48.804;9.252;2023-05-10T13:40:12;2.33;;;1.10;;
70733;SDS011;58320;48.804;9.252;2023-05-10T13:42:40;2.75;;;1.05;;
70733;SDS011;58320;48.804;9.252;2023-05-10T13:45:06;3.10;;;1.20;;
70733;SDS011;58320;48.804;9.252;2023-05-10T13:47:32;2.83;;;1.00;;
70733;SDS011;58320;48.804;9.252;2023-05-10T13:49:58;2.77;;;0.90;;
70733;SDS011;58320;48.804;9.252;2023-05-10T13:52:24;3.63;;;1.00;;
70733;SDS011;58320;48.804;9.252;2023-05-10T13:54:51;2.22;;;1.00;;
70733;SDS011;58320;48.804;9.252;2023-05-10T13:57:19;3.50;;;1.10;;
70733;SDS011;58320;48.804;9.252;2023-05-10T13:59:45;3.27;;;1.10;;
70733;SDS011;58320;48.804;9.252;2023-05-10T14:02:11;2.05;;;0.80;;
70733;SDS011;58320;48.804;9.252;2023-05-10T14:04:38;2.08;;;1.00;;
70733;SDS011;58320;48.804;9.252;2023-05-10T14:07:04;2.53;;;1.10;;
70733;SDS011;58320;48.804;9.252;2023-05-10T14:09:30;4.50;;;1.10;;
70733;SDS011;58320;48.804;9.252;2023-05-10T14:11:55;2.67;;;0.70;;
70733;SDS011;58320;48.804;9.252;2023-05-10T14:14:21;7.18;;;1.63;;
70733;SDS011;58320;48.804;9.252;2023-05-10T14:16:47;2.63;;;0.98;;
70733;SDS011;58320;48.804;9.252;2023-05-10T14:19:13;2.37;;;1.00;;
70733;SDS011;58320;48.804;9.252;2023-05-10T14:21:39;2.28;;;1.10;;
70733;SDS011;58320;48.804;9.252;2023-05-10T14:24:05;2.38;;;0.90;;
70733;SDS011;58320;48.804;9.252;2023-05-10T14:26:32;2.85;;;0.90;;
70733;SDS011;58320;48.804;9.252;2023-05-10T14:28:59;4.40;;;1.33;;
70733;SDS011;58320;48.804;9.252;2023-05-10T14:31:25;2.42;;;0.77;;
70733;SDS011;58320;48.804;9.252;2023-05-10T14:33:51;2.20;;;0.90;;
70733;SDS011;58320;48.804;9.252;2023-05-10T14:36:17;3.13;;;0.90;;
70733;SDS011;58320;48.804;9.252;2023-05-10T14:38:43;3.37;;;0.97;;
70733;SDS011;58320;48.804;9.252;2023-05-10T14:41:09;2.60;;;0.80;;
70733;SDS011;58320;48.804;9.252;2023-05-10T14:43:39;2.33;;;1.00;;
70733;SDS011;58320;48.804;9.252;2023-05-10T14:46:06;3.53;;;0.80;;
70733;SDS011;58320;48.804;9.252;2023-05-10T14:48:31;4.87;;;1.10;;
70733;SDS011;58320;48.804;9.252;2023-05-10T14:50:57;2.42;;;0.95;;
70733;SDS011;58320;48.804;9.252;2023-05-10T14:53:23;2.97;;;1.33;;
70733;SDS011;58320;48.804;9.252;2023-05-10T14:55:48;2.40;;;0.85;;
70733;SDS011;58320;48.804;9.252;2023-05-10T14:58:14;2.00;;;0.80;;
70733;SDS011;58320;48.804;9.252;2023-05-10T15:00:40;2.00;;;0.73;;
70733;SDS011;58320;48.804;9.252;2023-05-10T15:03:24;2.50;;;0.80;;
70733;SDS011;58320;48.804;9.252;2023-05-10T15:05:50;2.50;;;1.00;;
70733;SDS011;58320;48.804;9.252;2023-05-10T15:08:16;2.53;;;1.00;;
70733;SDS011;58320;48.804;9.252;2023-05-10T15:10:42;2.90;;;0.80;;
70733;SDS011;58320;48.804;9.252;2023-05-10T15:13:08;2.63;;;0.90;;
70733;SDS011;58320;48.804;9.252;2023-05-10T15:15:34;2.53;;;1.00;;
70733;SDS011;58320;48.804;9.252;2023-05-10T15:17:59;2.80;;;0.88;;
70733;SDS011;58320;48.804;9.252;2023-05-10T15:20:25;3.47;;;0.97;;
70733;SDS011;58320;48.804;9.252;2023-05-10T15:22:51;2.00;;;0.90;;
70733;SDS011;58320;48.804;9.252;2023-05-10T15:25:17;3.88;;;1.10;;
70733;SDS011;58320;48.804;9.252;2023-05-10T15:27:42;2.63;;;0.90;;
70733;SDS011;58320;48.804;9.252;2023-05-10T15:30:09;2.30;;;1.00;;